Norwegian Star — C6FR3 — position and weather

sailwx.info

Track history (hours):
 
Tides and Currents Weather Stations Pressure Air Temp Water Temp Dewpoint Dewpoint Depression Visibility Wind Speed Wind Dir Waves Ship Positions

Norwegian Star

Operator: Norwegian Cruise Line

Last reported at 2014-Sep-18 06:04 UTC. Time now 2014-Sep-18 17:41 UTC.
Position N 59°57' E 030°11'.

Type: Ship. MMSI: 311082000.

Date/timePositionNaut miles runAvg speedWind from/ knotsBaromVisibWave heightAir tempDewpointWater temp
2014-Sep-18 06:04N 59°57' E 030°11'0 0.0
2014-Sep-18 05:31N 59°57' E 030°11'0 0.0
2014-Sep-18 04:33N 59°57' E 030°11'0 0.0
2014-Sep-18 03:33N 59°57' E 030°11'0 0.0
2014-Sep-18 02:30N 59°57' E 030°11'0 0.0
2014-Sep-18 01:33N 59°57' E 030°11'0 0.0
2014-Sep-18 00:33N 59°57' E 030°11'0 0.0
2014-Sep-17 23:32N 59°57' E 030°11'0 0.0
2014-Sep-17 22:32N 59°57' E 030°11'0 0.0
2014-Sep-17 21:28N 59°57' E 030°11'0 0.0
2014-Sep-17 20:31N 59°57' E 030°11'0 0.0
2014-Sep-17 19:33N 59°57' E 030°11'0 0.0
2014-Sep-17 18:33N 59°57' E 030°11'0 0.0
2014-Sep-17 17:33N 59°57' E 030°11'0 0.0
2014-Sep-17 16:32N 59°57' E 030°11'0 0.0
2014-Sep-17 10:27N 59°57' E 030°11'0 0.0
2014-Sep-17 09:32N 59°57' E 030°11'0 0.0
2014-Sep-17 08:32N 59°57' E 030°11'0 0.0
2014-Sep-17 07:31N 59°57' E 030°11'0 0.0
2014-Sep-17 06:31N 59°57' E 030°11'0 0.0
2014-Sep-17 05:33N 59°57' E 030°11'0 0.0
2014-Sep-17 04:30N 59°57' E 030°11'0 0.1
2014-Sep-17 03:32N 59°57' E 030°11'8 7.2
2014-Sep-17 02:29N 59°56' E 029°56'9613.5
2014-Sep-16 19:25N 59°59' E 026°45'1415.8
2014-Sep-16 18:33N 59°56' E 026°19'1615.7
2014-Sep-16 17:33N 59°52' E 025°49'1615.9
2014-Sep-16 16:32N 59°47' E 025°18'1616.3
2014-Sep-16 15:33N 59°42' E 024°48'1414.3
2014-Sep-16 14:33N 59°28' E 024°46'1 0.8
2014-Sep-16 13:32N 59°27' E 024°46'0 0.0
2014-Sep-16 12:32N 59°27' E 024°46'0 0.0
2014-Sep-16 11:31N 59°27' E 024°46'0 0.0
2014-Sep-16 10:33N 59°27' E 024°46'0 0.0
2014-Sep-16 09:33N 59°27' E 024°46'0 0.0
2014-Sep-16 08:32N 59°27' E 024°46'3 5.8
2014-Sep-16 08:00N 59°24' E 024°48'3 6.8 180 / 81029.0 0.514.5 17.0
2014-Sep-16 07:32N 59°27' E 024°46'0 0.0
2014-Sep-16 06:31N 59°27' E 024°46'0 0.0
2014-Sep-16 05:33N 59°27' E 024°46'9 9.1
2014-Sep-16 04:33N 59°30' E 024°29'2116.7
2014-Sep-16 03:17N 59°27' E 023°47'4019.5
2014-Sep-16 01:13N 59°19' E 022°30'3716.7
2014-Sep-15 23:00N 58°54' E 021°36'10419.0 090 / 81025.0 15.0 17.0
2014-Sep-15 17:30N 57°28' E 019°44'1516.5
2014-Sep-15 16:33N 57°15' E 019°29'1716.6
2014-Sep-15 15:33N 57°04' E 019°05'1916.4
2014-Sep-15 14:24N 56°52' E 018°38'1416.1
2014-Sep-15 13:33N 56°43' E 018°19'1716.2
2014-Sep-15 12:32N 56°33' E 017°56'9515.9
2014-Sep-15 06:33N 55°40' E 015°34'1615.9
2014-Sep-15 05:33N 55°33' E 015°09'1616.0
2014-Sep-15 04:33N 55°25' E 014°44'1615.9
2014-Sep-15 03:33N 55°14' E 014°25'1616.4
2014-Sep-15 02:33N 55°01' E 014°07'1616.2
2014-Sep-15 01:34N 54°56' E 013°40'1615.7
2014-Sep-15 00:33N 54°51' E 013°14'1515.3
2014-Sep-14 23:33N 54°46' E 012°49'1514.5
2014-Sep-14 22:34N 54°40' E 012°26'1413.5
2014-Sep-14 21:33N 54°28' E 012°13'1413.9
2014-Sep-14 20:33N 54°16' E 012°05'5 4.6
2014-Sep-14 19:27N 54°10' E 012°06'0 0.0
2014-Sep-14 18:32N 54°10' E 012°06'0 0.0
2014-Sep-14 17:26N 54°10' E 012°06'0 0.0
2014-Sep-14 16:19N 54°10' E 012°06'0 0.0
2014-Sep-14 15:31N 54°10' E 012°06'0 0.0
2014-Sep-14 14:31N 54°10' E 012°06'0 0.0
2014-Sep-14 13:33N 54°10' E 012°06'0 0.0
2014-Sep-14 12:33N 54°10' E 012°06'0 0.0
2014-Sep-14 11:29N 54°10' E 012°06'0 0.0
2014-Sep-14 10:32N 54°10' E 012°06'0 0.0
2014-Sep-14 09:28N 54°10' E 012°06'0 0.0
2014-Sep-14 08:28N 54°10' E 012°06'0 0.0
2014-Sep-14 07:28N 54°10' E 012°06'0 0.0
2014-Sep-14 06:33N 54°10' E 012°06'0 0.0
2014-Sep-14 05:30N 54°10' E 012°06'4 4.1
2014-Sep-14 04:33N 54°14' E 012°03'1717.4
2014-Sep-14 03:33N 54°25' E 011°40'2019.5
2014-Sep-14 02:33N 54°35' E 011°11'9711.4
2014-Sep-13 18:05N 56°08' E 011°54'916.7
2014-Sep-13 17:33N 56°12' E 012°09'1616.4
2014-Sep-13 16:33N 56°05' E 012°36'1616.3
2014-Sep-13 15:33N 55°50' E 012°45'8 8.0
2014-Sep-13 14:32N 55°43' E 012°37'0 0.0
2014-Sep-13 13:31N 55°43' E 012°37'0 0.0
2014-Sep-13 12:28N 55°43' E 012°37'0 0.0
2014-Sep-13 11:31N 55°43' E 012°37'0 0.0
2014-Sep-13 10:32N 55°43' E 012°37'0 0.0
2014-Sep-13 09:31N 55°43' E 012°37'0 0.0
2014-Sep-13 08:31N 55°43' E 012°37'0 0.0
2014-Sep-13 07:33N 55°43' E 012°37'0 0.0
2014-Sep-13 06:33N 55°43' E 012°37'0 0.0
2014-Sep-13 05:33N 55°43' E 012°37'0 0.1
2014-Sep-13 04:34N 55°43' E 012°37'8 8.1
2014-Sep-13 03:33N 55°51' E 012°41'1514.7
2014-Sep-13 02:33N 56°05' E 012°35'1615.6
2014-Sep-13 01:33N 56°12' E 012°10'1616.0
2014-Sep-13 00:34N 56°06' E 011°42'1716.3
2014-Sep-12 23:31N 56°07' E 011°12'1716.4
2014-Sep-12 22:28N 55°53' E 010°54'1516.7
2014-Sep-12 21:33N 55°38' E 010°48'5518.2
2014-Sep-12 18:33N 54°43' E 010°51'2019.8
2014-Sep-12 17:34N 54°34' E 011°21'2020.2
2014-Sep-12 16:33N 54°26' E 011°53'1716.7
2014-Sep-12 15:32N 54°36' E 012°16'2019.9
2014-Sep-12 14:30N 54°47' E 012°46'2020.4
2014-Sep-12 13:30N 54°55' E 013°19'1920.7
2014-Sep-12 12:33N 55°01' E 013°51'2020.0
2014-Sep-12 11:33N 55°14' E 014°18'2020.2
2014-Sep-12 10:34N 55°28' E 014°43'2220.9
2014-Sep-12 09:31N 55°39' E 015°17'2120.8
2014-Sep-12 08:31N 55°49' E 015°49'22412.4
2014-Sep-11 14:24N 59°20' E 018°12'3 3.2
2014-Sep-11 13:32N 59°19' E 018°06'0 0.0
2014-Sep-11 12:28N 59°19' E 018°06'0 0.1
2014-Sep-11 11:28N 59°19' E 018°06'0 0.1
2014-Sep-11 10:28N 59°19' E 018°06'0 0.0
2014-Sep-11 09:31N 59°19' E 018°06'0 0.0
2014-Sep-11 08:30N 59°19' E 018°06'0 0.0
2014-Sep-11 07:33N 59°19' E 018°06'2 2.3
2014-Sep-11 06:33N 59°20' E 018°11'9 7.0
2014-Sep-11 05:18N 59°25' E 018°24'11312.4
2014-Sep-10 20:09N 59°28' E 022°06'914.4
2014-Sep-10 19:33N 59°29' E 022°23'1514.6
2014-Sep-10 18:33N 59°33' E 022°51'1414.4
2014-Sep-10 17:33N 59°37' E 023°18'813.8
2014-Sep-10 17:00N 59°42' E 023°30'818.1 090 / 81016.0 1.017.0 17.0
2014-Sep-10 16:34N 59°42' E 023°46'1714.6
2014-Sep-10 15:23N 59°47' E 024°18'1314.3
2014-Sep-10 14:30N 59°53' E 024°40'1212.5
2014-Sep-10 13:33N 60°03' E 024°54'6 5.9
2014-Sep-10 12:31N 60°09' E 024°55'0 0.0
2014-Sep-10 11:31N 60°09' E 024°55'0 0.0
2014-Sep-10 10:33N 60°09' E 024°55'0 0.0
2014-Sep-10 09:33N 60°09' E 024°55'0 0.0
2014-Sep-10 08:32N 60°09' E 024°55'0 0.0
2014-Sep-10 07:32N 60°09' E 024°55'0 0.0
2014-Sep-10 06:32N 60°09' E 024°55'0 0.0
2014-Sep-10 05:31N 60°09' E 024°55'0 0.0
2014-Sep-10 04:31N 60°09' E 024°55'0 0.0
2014-Sep-10 03:33N 60°09' E 024°55'30 9.9
2014-Sep-10 00:32N 59°56' E 025°50'1514.7
2014-Sep-09 23:32N 59°60' E 026°18'1514.9
2014-Sep-09 22:33N 60°01' E 026°47'1514.7
2014-Sep-09 21:33N 60°03' E 027°16'88 6.3
2014-Sep-09 07:33N 59°57' E 030°11'0 0.0
2014-Sep-09 06:33N 59°57' E 030°11'0 0.0
2014-Sep-09 05:29N 59°57' E 030°11'0 0.0
2014-Sep-09 04:32N 59°57' E 030°11'0 0.0
2014-Sep-09 03:32N 59°57' E 030°11'0 0.0
2014-Sep-09 02:31N 59°57' E 030°11'0 0.0
2014-Sep-09 01:31N 59°57' E 030°11'0 0.0
2014-Sep-09 00:33N 59°57' E 030°11'0 0.0
2014-Sep-08 23:33N 59°57' E 030°11'0 0.0
2014-Sep-08 22:32N 59°57' E 030°11'0 0.0
2014-Sep-08 21:32N 59°57' E 030°11'0 0.0
2014-Sep-08 20:32N 59°57' E 030°11'0 0.0
2014-Sep-08 19:31N 59°57' E 030°11'3 1.1
2014-Sep-08 17:00N 59°54' E 030°12'3 0.8 180 / 51018.0 0.520.5 15.0
2014-Sep-08 13:22N 59°57' E 030°11'0 0.0
2014-Sep-08 12:31N 59°57' E 030°11'0 0.0
2014-Sep-08 08:20N 59°57' E 030°11'0 0.0
2014-Sep-08 07:32N 59°57' E 030°11'3 5.1
2014-Sep-08 07:00N 59°54' E 030°12'3 5.9 140 / 71020.0 0.517.0 18.0
2014-Sep-08 06:32N 59°57' E 030°11'  
Track history (hours):
 
Tides and Currents Weather Stations Pressure Air Temp Water Temp Dewpoint Dewpoint Depression Visibility Wind Speed Wind Dir Waves Ship Positions

Norwegian Star

Operator: Norwegian Cruise Line

Last reported at 2014-Sep-18 06:04 UTC. Time now 2014-Sep-18 17:41 UTC.
Position N 59°57' E 030°11'.

Type: Ship. MMSI: 311082000.

Date/timePositionNaut miles runAvg speedWind from/ knotsBaromVisibWave heightAir tempDewpointWater temp
2014-Sep-18 06:04N 59°57' E 030°11'0 0.0
2014-Sep-18 05:31N 59°57' E 030°11'0 0.0
2014-Sep-18 04:33N 59°57' E 030°11'0 0.0
2014-Sep-18 03:33N 59°57' E 030°11'0 0.0
2014-Sep-18 02:30N 59°57' E 030°11'0 0.0
2014-Sep-18 01:33N 59°57' E 030°11'0 0.0
2014-Sep-18 00:33N 59°57' E 030°11'0 0.0
2014-Sep-17 23:32N 59°57' E 030°11'0 0.0
2014-Sep-17 22:32N 59°57' E 030°11'0 0.0
2014-Sep-17 21:28N 59°57' E 030°11'0 0.0
2014-Sep-17 20:31N 59°57' E 030°11'0 0.0
2014-Sep-17 19:33N 59°57' E 030°11'0 0.0
2014-Sep-17 18:33N 59°57' E 030°11'0 0.0
2014-Sep-17 17:33N 59°57' E 030°11'0 0.0
2014-Sep-17 16:32N 59°57' E 030°11'0 0.0
2014-Sep-17 10:27N 59°57' E 030°11'0 0.0
2014-Sep-17 09:32N 59°57' E 030°11'0 0.0
2014-Sep-17 08:32N 59°57' E 030°11'0 0.0
2014-Sep-17 07:31N 59°57' E 030°11'0 0.0
2014-Sep-17 06:31N 59°57' E 030°11'0 0.0
2014-Sep-17 05:33N 59°57' E 030°11'0 0.0
2014-Sep-17 04:30N 59°57' E 030°11'0 0.1
2014-Sep-17 03:32N 59°57' E 030°11'8 7.2
2014-Sep-17 02:29N 59°56' E 029°56'9613.5
2014-Sep-16 19:25N 59°59' E 026°45'1415.8
2014-Sep-16 18:33N 59°56' E 026°19'1615.7
2014-Sep-16 17:33N 59°52' E 025°49'1615.9
2014-Sep-16 16:32N 59°47' E 025°18'1616.3
2014-Sep-16 15:33N 59°42' E 024°48'1414.3
2014-Sep-16 14:33N 59°28' E 024°46'1 0.8
2014-Sep-16 13:32N 59°27' E 024°46'0 0.0
2014-Sep-16 12:32N 59°27' E 024°46'0 0.0
2014-Sep-16 11:31N 59°27' E 024°46'0 0.0
2014-Sep-16 10:33N 59°27' E 024°46'0 0.0
2014-Sep-16 09:33N 59°27' E 024°46'0 0.0
2014-Sep-16 08:32N 59°27' E 024°46'3 5.8
2014-Sep-16 08:00N 59°24' E 024°48'3 6.8 180 / 81029.0 0.514.5 17.0
2014-Sep-16 07:32N 59°27' E 024°46'0 0.0
2014-Sep-16 06:31N 59°27' E 024°46'0 0.0
2014-Sep-16 05:33N 59°27' E 024°46'9 9.1
2014-Sep-16 04:33N 59°30' E 024°29'2116.7
2014-Sep-16 03:17N 59°27' E 023°47'4019.5
2014-Sep-16 01:13N 59°19' E 022°30'3716.7
2014-Sep-15 23:00N 58°54' E 021°36'10419.0 090 / 81025.0 15.0 17.0
2014-Sep-15 17:30N 57°28' E 019°44'1516.5
2014-Sep-15 16:33N 57°15' E 019°29'1716.6
2014-Sep-15 15:33N 57°04' E 019°05'1916.4
2014-Sep-15 14:24N 56°52' E 018°38'1416.1
2014-Sep-15 13:33N 56°43' E 018°19'1716.2
2014-Sep-15 12:32N 56°33' E 017°56'9515.9
2014-Sep-15 06:33N 55°40' E 015°34'1615.9
2014-Sep-15 05:33N 55°33' E 015°09'1616.0
2014-Sep-15 04:33N 55°25' E 014°44'1615.9
2014-Sep-15 03:33N 55°14' E 014°25'1616.4
2014-Sep-15 02:33N 55°01' E 014°07'1616.2
2014-Sep-15 01:34N 54°56' E 013°40'1615.7
2014-Sep-15 00:33N 54°51' E 013°14'1515.3
2014-Sep-14 23:33N 54°46' E 012°49'1514.5
2014-Sep-14 22:34N 54°40' E 012°26'1413.5
2014-Sep-14 21:33N 54°28' E 012°13'1413.9
2014-Sep-14 20:33N 54°16' E 012°05'5 4.6
2014-Sep-14 19:27N 54°10' E 012°06'0 0.0
2014-Sep-14 18:32N 54°10' E 012°06'0 0.0
2014-Sep-14 17:26N 54°10' E 012°06'0 0.0
2014-Sep-14 16:19N 54°10' E 012°06'0 0.0
2014-Sep-14 15:31N 54°10' E 012°06'0 0.0
2014-Sep-14 14:31N 54°10' E 012°06'0 0.0
2014-Sep-14 13:33N 54°10' E 012°06'0 0.0
2014-Sep-14 12:33N 54°10' E 012°06'0 0.0
2014-Sep-14 11:29N 54°10' E 012°06'0 0.0
2014-Sep-14 10:32N 54°10' E 012°06'0 0.0
2014-Sep-14 09:28N 54°10' E 012°06'0 0.0
2014-Sep-14 08:28N 54°10' E 012°06'0 0.0
2014-Sep-14 07:28N 54°10' E 012°06'0 0.0
2014-Sep-14 06:33N 54°10' E 012°06'0 0.0
2014-Sep-14 05:30N 54°10' E 012°06'4 4.1
2014-Sep-14 04:33N 54°14' E 012°03'1717.4
2014-Sep-14 03:33N 54°25' E 011°40'2019.5
2014-Sep-14 02:33N 54°35' E 011°11'9711.4
2014-Sep-13 18:05N 56°08' E 011°54'916.7
2014-Sep-13 17:33N 56°12' E 012°09'1616.4
2014-Sep-13 16:33N 56°05' E 012°36'1616.3
2014-Sep-13 15:33N 55°50' E 012°45'8 8.0
2014-Sep-13 14:32N 55°43' E 012°37'0 0.0
2014-Sep-13 13:31N 55°43' E 012°37'0 0.0
2014-Sep-13 12:28N 55°43' E 012°37'0 0.0
2014-Sep-13 11:31N 55°43' E 012°37'0 0.0
2014-Sep-13 10:32N 55°43' E 012°37'0 0.0
2014-Sep-13 09:31N 55°43' E 012°37'0 0.0
2014-Sep-13 08:31N 55°43' E 012°37'0 0.0
2014-Sep-13 07:33N 55°43' E 012°37'0 0.0
2014-Sep-13 06:33N 55°43' E 012°37'0 0.0
2014-Sep-13 05:33N 55°43' E 012°37'0 0.1
2014-Sep-13 04:34N 55°43' E 012°37'8 8.1
2014-Sep-13 03:33N 55°51' E 012°41'1514.7
2014-Sep-13 02:33N 56°05' E 012°35'1615.6
2014-Sep-13 01:33N 56°12' E 012°10'1616.0
2014-Sep-13 00:34N 56°06' E 011°42'1716.3
2014-Sep-12 23:31N 56°07' E 011°12'1716.4
2014-Sep-12 22:28N 55°53' E 010°54'1516.7
2014-Sep-12 21:33N 55°38' E 010°48'5518.2
2014-Sep-12 18:33N 54°43' E 010°51'2019.8
2014-Sep-12 17:34N 54°34' E 011°21'2020.2
2014-Sep-12 16:33N 54°26' E 011°53'1716.7
2014-Sep-12 15:32N 54°36' E 012°16'2019.9
2014-Sep-12 14:30N 54°47' E 012°46'2020.4
2014-Sep-12 13:30N 54°55' E 013°19'1920.7
2014-Sep-12 12:33N 55°01' E 013°51'2020.0
2014-Sep-12 11:33N 55°14' E 014°18'2020.2
2014-Sep-12 10:34N 55°28' E 014°43'2220.9
2014-Sep-12 09:31N 55°39' E 015°17'2120.8
2014-Sep-12 08:31N 55°49' E 015°49'22412.4
2014-Sep-11 14:24N 59°20' E 018°12'3 3.2
2014-Sep-11 13:32N 59°19' E 018°06'0 0.0
2014-Sep-11 12:28N 59°19' E 018°06'0 0.1
2014-Sep-11 11:28N 59°19' E 018°06'0 0.1
2014-Sep-11 10:28N 59°19' E 018°06'0 0.0
2014-Sep-11 09:31N 59°19' E 018°06'0 0.0
2014-Sep-11 08:30N 59°19' E 018°06'0 0.0
2014-Sep-11 07:33N 59°19' E 018°06'2 2.3
2014-Sep-11 06:33N 59°20' E 018°11'9 7.0
2014-Sep-11 05:18N 59°25' E 018°24'11312.4
2014-Sep-10 20:09N 59°28' E 022°06'914.4
2014-Sep-10 19:33N 59°29' E 022°23'1514.6
2014-Sep-10 18:33N 59°33' E 022°51'1414.4
2014-Sep-10 17:33N 59°37' E 023°18'813.8
2014-Sep-10 17:00N 59°42' E 023°30'818.1 090 / 81016.0 1.017.0 17.0
2014-Sep-10 16:34N 59°42' E 023°46'1714.6
2014-Sep-10 15:23N 59°47' E 024°18'1314.3
2014-Sep-10 14:30N 59°53' E 024°40'1212.5
2014-Sep-10 13:33N 60°03' E 024°54'6 5.9
2014-Sep-10 12:31N 60°09' E 024°55'0 0.0
2014-Sep-10 11:31N 60°09' E 024°55'0 0.0
2014-Sep-10 10:33N 60°09' E 024°55'0 0.0
2014-Sep-10 09:33N 60°09' E 024°55'0 0.0
2014-Sep-10 08:32N 60°09' E 024°55'0 0.0
2014-Sep-10 07:32N 60°09' E 024°55'0 0.0
2014-Sep-10 06:32N 60°09' E 024°55'0 0.0
2014-Sep-10 05:31N 60°09' E 024°55'0 0.0
2014-Sep-10 04:31N 60°09' E 024°55'0 0.0
2014-Sep-10 03:33N 60°09' E 024°55'30 9.9
2014-Sep-10 00:32N 59°56' E 025°50'1514.7
2014-Sep-09 23:32N 59°60' E 026°18'1514.9
2014-Sep-09 22:33N 60°01' E 026°47'1514.7
2014-Sep-09 21:33N 60°03' E 027°16'88 6.3
2014-Sep-09 07:33N 59°57' E 030°11'0 0.0
2014-Sep-09 06:33N 59°57' E 030°11'0 0.0
2014-Sep-09 05:29N 59°57' E 030°11'0 0.0
2014-Sep-09 04:32N 59°57' E 030°11'0 0.0
2014-Sep-09 03:32N 59°57' E 030°11'0 0.0
2014-Sep-09 02:31N 59°57' E 030°11'0 0.0
2014-Sep-09 01:31N 59°57' E 030°11'0 0.0
2014-Sep-09 00:33N 59°57' E 030°11'0 0.0
2014-Sep-08 23:33N 59°57' E 030°11'0 0.0
2014-Sep-08 22:32N 59°57' E 030°11'0 0.0
2014-Sep-08 21:32N 59°57' E 030°11'0 0.0
2014-Sep-08 20:32N 59°57' E 030°11'0 0.0
2014-Sep-08 19:31N 59°57' E 030°11'3 1.1
2014-Sep-08 17:00N 59°54' E 030°12'3 0.8 180 / 51018.0 0.520.5 15.0
2014-Sep-08 13:22N 59°57' E 030°11'0 0.0
2014-Sep-08 12:31N 59°57' E 030°11'0 0.0
2014-Sep-08 08:20N 59°57' E 030°11'0 0.0
2014-Sep-08 07:32N 59°57' E 030°11'3 5.1
2014-Sep-08 07:00N 59°54' E 030°12'3 5.9 140 / 71020.0 0.517.0 18.0
2014-Sep-08 06:32N 59°57' E 030°11'  

Dump ship's entire track history